Susanne.pairtrawler — DETY — position and weather

sailwx.info

Track history (hours):
 
Tides and Currents Weather Stations Pressure Air Temp Water Temp Dewpoint Dewpoint Depression Visibility Wind Speed Wind Dir Waves Ship Positions

Susanne.pairtrawler

Last reported at 2017-Feb-18 03:12 UTC. Time now 2017-Feb-21 08:01 UTC.
Position N 57°45' E 006°10'.

Length 40 m; draft 5 m.

Type: Fishing. MMSI: 211227510.

Date/timePositionNaut miles runAvg speedWind from/ knotsBaromVisibWave heightAir tempDewpointWater temp
2017-Feb-18 03:12N 57°45' E 006°10'6910.4
2017-Feb-17 20:33N 57°15' E 008°06'9 9.5
2017-Feb-17 19:34N 57°11' E 008°22'27 0.5
2017-Feb-15 16:07N 57°27' E 007°42'3 4.4
2017-Feb-15 15:33N 57°27' E 007°47'33 5.2
2017-Feb-15 09:09N 57°07' E 008°36'0 0.0
2017-Feb-15 08:33N 57°07' E 008°36'0 0.2
2017-Feb-15 07:32N 57°07' E 008°36'0 0.0
2017-Feb-14 22:33N 57°07' E 008°36'0 0.0
2017-Feb-14 21:13N 57°07' E 008°36'0 0.3
2017-Feb-14 20:33N 57°07' E 008°36'0 0.0
2017-Feb-14 19:28N 57°07' E 008°36'0 0.0
2017-Feb-14 18:23N 57°07' E 008°36'0 0.0
2017-Feb-14 17:18N 57°07' E 008°36'0 0.0
2017-Feb-14 14:13N 57°07' E 008°36'0 0.0
2017-Feb-14 13:32N 57°07' E 008°36'0 0.0
2017-Feb-14 12:31N 57°07' E 008°36'0 0.0
2017-Feb-14 11:32N 57°07' E 008°36'0 0.0
2017-Feb-14 10:33N 57°07' E 008°36'0 0.0
2017-Feb-14 09:33N 57°07' E 008°36'0 0.0
2017-Feb-14 02:13N 57°07' E 008°36'0 0.0
2017-Feb-14 01:14N 57°07' E 008°36'0 0.0
2017-Feb-14 00:12N 57°07' E 008°36'0 0.0
2017-Feb-13 23:25N 57°07' E 008°36'0 0.0
2017-Feb-12 14:11N 57°07' E 008°36'0 0.0
2017-Feb-12 13:05N 57°07' E 008°36'0 0.0
2017-Feb-12 11:29N 57°07' E 008°36'0 0.0
2017-Feb-12 10:28N 57°07' E 008°36'0 0.0
2017-Feb-12 09:32N 57°07' E 008°36'0 0.0
2017-Feb-12 02:12N 57°07' E 008°36'0 0.0
2017-Feb-12 01:33N 57°07' E 008°36'0 0.0
2017-Feb-12 00:32N 57°07' E 008°36'81 4.5
2017-Feb-11 06:33N 55°50' E 007°51'9 9.3
2017-Feb-11 05:33N 55°41' E 007°49'9 9.1
2017-Feb-11 04:33N 55°32' E 007°54'9 8.9
2017-Feb-11 03:33N 55°25' E 008°03'1010.0
2017-Feb-11 02:34N 55°15' E 008°01'76 9.5
2017-Feb-10 18:34N 54°00' E 008°21'1010.3
2017-Feb-10 17:34N 53°57' E 008°38'6 5.3
2017-Feb-10 16:25N 53°52' E 008°43'4 4.6
2017-Feb-10 15:33N 53°50' E 008°48'2 2.2
2017-Feb-10 14:33N 53°51' E 008°45'1 1.4
2017-Feb-10 13:33N 53°52' E 008°43'0 0.0
2017-Feb-10 12:33N 53°52' E 008°43'0 0.0
2017-Feb-10 11:33N 53°52' E 008°43'0 0.0
2017-Feb-10 10:33N 53°52' E 008°43'0 0.0
2017-Feb-10 09:33N 53°52' E 008°43'0 0.0
2017-Feb-10 08:32N 53°52' E 008°43'0 0.0
2017-Feb-10 07:33N 53°52' E 008°43'0 0.0
2017-Feb-10 06:33N 53°52' E 008°43'0 0.0
2017-Feb-10 05:33N 53°52' E 008°43'0 0.0
2017-Feb-10 04:33N 53°52' E 008°43'0 0.0
2017-Feb-10 03:33N 53°52' E 008°43'0 0.0
2017-Feb-10 02:33N 53°52' E 008°43'0 0.0
2017-Feb-10 01:33N 53°52' E 008°43'0 0.0
2017-Feb-10 00:33N 53°52' E 008°43'0 0.0
2017-Feb-09 23:33N 53°52' E 008°43'0 0.0
2017-Feb-09 22:33N 53°52' E 008°43'0 0.0
2017-Feb-09 21:33N 53°52' E 008°43'0 0.0
2017-Feb-09 20:33N 53°52' E 008°43'0 0.0
2017-Feb-09 19:33N 53°52' E 008°43'0 0.0
2017-Feb-09 18:33N 53°52' E 008°43'0 0.0
2017-Feb-09 17:33N 53°52' E 008°43'0 0.0
2017-Feb-09 16:33N 53°52' E 008°43'0 0.0
2017-Feb-09 15:33N 53°52' E 008°43'0 0.0
2017-Feb-09 14:33N 53°52' E 008°43'0 0.0
2017-Feb-09 13:33N 53°52' E 008°43'0 0.0
2017-Feb-09 12:33N 53°52' E 008°43'0 0.0
2017-Feb-09 11:34N 53°52' E 008°43'0 0.0
2017-Feb-09 10:33N 53°52' E 008°43'0 0.0
2017-Feb-09 09:33N 53°52' E 008°43'0 0.4
2017-Feb-09 08:33N 53°52' E 008°43'1 1.0
2017-Feb-09 07:33N 53°52' E 008°44'1 0.8
2017-Feb-09 06:33N 53°52' E 008°43'0 0.0
2017-Feb-09 05:34N 53°52' E 008°43'0 0.0
2017-Feb-09 04:32N 53°52' E 008°43'0 0.0
2017-Feb-09 03:33N 53°52' E 008°43'0 0.0
2017-Feb-09 02:33N 53°52' E 008°43'0 0.0
2017-Feb-09 01:33N 53°52' E 008°43'0 0.0
2017-Feb-09 00:33N 53°52' E 008°43'0 0.0
2017-Feb-08 23:33N 53°52' E 008°43'0 0.0
2017-Feb-08 22:33N 53°52' E 008°43'0 0.0
2017-Feb-08 21:33N 53°52' E 008°43'0 0.0
2017-Feb-08 20:33N 53°52' E 008°43'0 0.0
2017-Feb-08 19:33N 53°52' E 008°43'0 0.0
2017-Feb-08 18:33N 53°52' E 008°43'0 0.0
2017-Feb-08 17:33N 53°52' E 008°43'0 0.0
2017-Feb-08 16:33N 53°52' E 008°43'0 0.0
2017-Feb-08 15:33N 53°52' E 008°43'1 0.8
2017-Feb-08 14:34N 53°52' E 008°44'1 0.9
2017-Feb-08 13:33N 53°52' E 008°43'0 0.1
2017-Feb-08 12:33N 53°52' E 008°43'0 0.0
2017-Feb-08 11:33N 53°52' E 008°43'0 0.0
2017-Feb-08 10:33N 53°52' E 008°43'0 0.0
2017-Feb-08 09:33N 53°52' E 008°43'0 0.0
2017-Feb-08 08:31N 53°52' E 008°43'0 0.0
2017-Feb-08 07:33N 53°52' E 008°43'0 0.0
2017-Feb-08 06:33N 53°52' E 008°43'0 0.0
2017-Feb-08 05:33N 53°52' E 008°43'0 0.0
2017-Feb-08 04:32N 53°52' E 008°43'0 0.0
2017-Feb-08 03:33N 53°52' E 008°43'  
Track history (hours):
 
Tides and Currents Weather Stations Pressure Air Temp Water Temp Dewpoint Dewpoint Depression Visibility Wind Speed Wind Dir Waves Ship Positions

Susanne.pairtrawler

Last reported at 2017-Feb-18 03:12 UTC. Time now 2017-Feb-21 08:01 UTC.
Position N 57°45' E 006°10'.

Length 40 m; draft 5 m.

Type: Fishing. MMSI: 211227510.

Date/timePositionNaut miles runAvg speedWind from/ knotsBaromVisibWave heightAir tempDewpointWater temp
2017-Feb-18 03:12N 57°45' E 006°10'6910.4
2017-Feb-17 20:33N 57°15' E 008°06'9 9.5
2017-Feb-17 19:34N 57°11' E 008°22'27 0.5
2017-Feb-15 16:07N 57°27' E 007°42'3 4.4
2017-Feb-15 15:33N 57°27' E 007°47'33 5.2
2017-Feb-15 09:09N 57°07' E 008°36'0 0.0
2017-Feb-15 08:33N 57°07' E 008°36'0 0.2
2017-Feb-15 07:32N 57°07' E 008°36'0 0.0
2017-Feb-14 22:33N 57°07' E 008°36'0 0.0
2017-Feb-14 21:13N 57°07' E 008°36'0 0.3
2017-Feb-14 20:33N 57°07' E 008°36'0 0.0
2017-Feb-14 19:28N 57°07' E 008°36'0 0.0
2017-Feb-14 18:23N 57°07' E 008°36'0 0.0
2017-Feb-14 17:18N 57°07' E 008°36'0 0.0
2017-Feb-14 14:13N 57°07' E 008°36'0 0.0
2017-Feb-14 13:32N 57°07' E 008°36'0 0.0
2017-Feb-14 12:31N 57°07' E 008°36'0 0.0
2017-Feb-14 11:32N 57°07' E 008°36'0 0.0
2017-Feb-14 10:33N 57°07' E 008°36'0 0.0
2017-Feb-14 09:33N 57°07' E 008°36'0 0.0
2017-Feb-14 02:13N 57°07' E 008°36'0 0.0
2017-Feb-14 01:14N 57°07' E 008°36'0 0.0
2017-Feb-14 00:12N 57°07' E 008°36'0 0.0
2017-Feb-13 23:25N 57°07' E 008°36'0 0.0
2017-Feb-12 14:11N 57°07' E 008°36'0 0.0
2017-Feb-12 13:05N 57°07' E 008°36'0 0.0
2017-Feb-12 11:29N 57°07' E 008°36'0 0.0
2017-Feb-12 10:28N 57°07' E 008°36'0 0.0
2017-Feb-12 09:32N 57°07' E 008°36'0 0.0
2017-Feb-12 02:12N 57°07' E 008°36'0 0.0
2017-Feb-12 01:33N 57°07' E 008°36'0 0.0
2017-Feb-12 00:32N 57°07' E 008°36'81 4.5
2017-Feb-11 06:33N 55°50' E 007°51'9 9.3
2017-Feb-11 05:33N 55°41' E 007°49'9 9.1
2017-Feb-11 04:33N 55°32' E 007°54'9 8.9
2017-Feb-11 03:33N 55°25' E 008°03'1010.0
2017-Feb-11 02:34N 55°15' E 008°01'76 9.5
2017-Feb-10 18:34N 54°00' E 008°21'1010.3
2017-Feb-10 17:34N 53°57' E 008°38'6 5.3
2017-Feb-10 16:25N 53°52' E 008°43'4 4.6
2017-Feb-10 15:33N 53°50' E 008°48'2 2.2
2017-Feb-10 14:33N 53°51' E 008°45'1 1.4
2017-Feb-10 13:33N 53°52' E 008°43'0 0.0
2017-Feb-10 12:33N 53°52' E 008°43'0 0.0
2017-Feb-10 11:33N 53°52' E 008°43'0 0.0
2017-Feb-10 10:33N 53°52' E 008°43'0 0.0
2017-Feb-10 09:33N 53°52' E 008°43'0 0.0
2017-Feb-10 08:32N 53°52' E 008°43'0 0.0
2017-Feb-10 07:33N 53°52' E 008°43'0 0.0
2017-Feb-10 06:33N 53°52' E 008°43'0 0.0
2017-Feb-10 05:33N 53°52' E 008°43'0 0.0
2017-Feb-10 04:33N 53°52' E 008°43'0 0.0
2017-Feb-10 03:33N 53°52' E 008°43'0 0.0
2017-Feb-10 02:33N 53°52' E 008°43'0 0.0
2017-Feb-10 01:33N 53°52' E 008°43'0 0.0
2017-Feb-10 00:33N 53°52' E 008°43'0 0.0
2017-Feb-09 23:33N 53°52' E 008°43'0 0.0
2017-Feb-09 22:33N 53°52' E 008°43'0 0.0
2017-Feb-09 21:33N 53°52' E 008°43'0 0.0
2017-Feb-09 20:33N 53°52' E 008°43'0 0.0
2017-Feb-09 19:33N 53°52' E 008°43'0 0.0
2017-Feb-09 18:33N 53°52' E 008°43'0 0.0
2017-Feb-09 17:33N 53°52' E 008°43'0 0.0
2017-Feb-09 16:33N 53°52' E 008°43'0 0.0
2017-Feb-09 15:33N 53°52' E 008°43'0 0.0
2017-Feb-09 14:33N 53°52' E 008°43'0 0.0
2017-Feb-09 13:33N 53°52' E 008°43'0 0.0
2017-Feb-09 12:33N 53°52' E 008°43'0 0.0
2017-Feb-09 11:34N 53°52' E 008°43'0 0.0
2017-Feb-09 10:33N 53°52' E 008°43'0 0.0
2017-Feb-09 09:33N 53°52' E 008°43'0 0.4
2017-Feb-09 08:33N 53°52' E 008°43'1 1.0
2017-Feb-09 07:33N 53°52' E 008°44'1 0.8
2017-Feb-09 06:33N 53°52' E 008°43'0 0.0
2017-Feb-09 05:34N 53°52' E 008°43'0 0.0
2017-Feb-09 04:32N 53°52' E 008°43'0 0.0
2017-Feb-09 03:33N 53°52' E 008°43'0 0.0
2017-Feb-09 02:33N 53°52' E 008°43'0 0.0
2017-Feb-09 01:33N 53°52' E 008°43'0 0.0
2017-Feb-09 00:33N 53°52' E 008°43'0 0.0
2017-Feb-08 23:33N 53°52' E 008°43'0 0.0
2017-Feb-08 22:33N 53°52' E 008°43'0 0.0
2017-Feb-08 21:33N 53°52' E 008°43'0 0.0
2017-Feb-08 20:33N 53°52' E 008°43'0 0.0
2017-Feb-08 19:33N 53°52' E 008°43'0 0.0
2017-Feb-08 18:33N 53°52' E 008°43'0 0.0
2017-Feb-08 17:33N 53°52' E 008°43'0 0.0
2017-Feb-08 16:33N 53°52' E 008°43'0 0.0
2017-Feb-08 15:33N 53°52' E 008°43'1 0.8
2017-Feb-08 14:34N 53°52' E 008°44'1 0.9
2017-Feb-08 13:33N 53°52' E 008°43'0 0.1
2017-Feb-08 12:33N 53°52' E 008°43'0 0.0
2017-Feb-08 11:33N 53°52' E 008°43'0 0.0
2017-Feb-08 10:33N 53°52' E 008°43'0 0.0
2017-Feb-08 09:33N 53°52' E 008°43'0 0.0
2017-Feb-08 08:31N 53°52' E 008°43'0 0.0
2017-Feb-08 07:33N 53°52' E 008°43'0 0.0
2017-Feb-08 06:33N 53°52' E 008°43'0 0.0
2017-Feb-08 05:33N 53°52' E 008°43'0 0.0
2017-Feb-08 04:32N 53°52' E 008°43'0 0.0
2017-Feb-08 03:33N 53°52' E 008°43'  

Dump ship's entire track history